createdAt,value
2022-11-04T00:00:44.881Z,89.03
2022-11-04T00:03:14.093Z,89.12
2022-11-04T00:05:42.805Z,88.59
2022-11-04T00:08:24.893Z,88.40
2022-11-04T00:11:13.466Z,88.76
2022-11-04T00:13:42.348Z,88.70
2022-11-04T00:16:28.122Z,88.32
2022-11-04T00:18:57.057Z,88.60
2022-11-04T00:21:57.621Z,88.11
2022-11-04T00:24:45.265Z,87.56
2022-11-04T00:27:34.341Z,87.81
2022-11-04T00:30:03.441Z,87.79
2022-11-04T00:32:51.448Z,87.90
2022-11-04T00:35:20.768Z,87.92
2022-11-04T00:37:49.389Z,87.76
2022-11-04T00:40:19.677Z,88.01
2022-11-04T00:42:48.283Z,88.05
2022-11-04T00:45:17.092Z,87.64
2022-11-04T00:47:45.764Z,87.63
2022-11-04T00:50:14.363Z,88.08
2022-11-04T00:52:43.083Z,88.27
2022-11-04T00:55:12.120Z,88.12
2022-11-04T00:57:42.171Z,88.17
2022-11-04T01:00:12.897Z,88.15
2022-11-04T01:02:41.868Z,87.94
2022-11-04T01:05:11.248Z,88.00
2022-11-04T01:07:43.649Z,88.22
2022-11-04T01:10:13.143Z,87.90
2022-11-04T01:12:43.490Z,88.04
2022-11-04T01:15:12.557Z,87.86
2022-11-04T01:17:41.385Z,87.84
2022-11-04T01:20:11.713Z,87.81
2022-11-04T01:22:40.485Z,88.73
2022-11-04T01:25:11.730Z,88.67
2022-11-04T01:27:40.505Z,88.22
2022-11-04T01:30:13.712Z,88.27
2022-11-04T01:32:42.472Z,88.13
2022-11-04T01:35:11.724Z,88.48
2022-11-04T01:37:40.643Z,88.69
2022-11-04T01:40:11.166Z,88.93
2022-11-04T01:42:39.904Z,88.83
2022-11-04T01:45:17.629Z,88.75
2022-11-04T01:47:54.304Z,89.02
2022-11-04T01:50:28.191Z,89.26
2022-11-04T01:53:04.659Z,89.33
2022-11-04T01:55:37.426Z,89.76
2022-11-04T01:58:12.133Z,90.09
2022-11-04T02:00:44.542Z,92.19
2022-11-04T02:03:19.533Z,92.21
2022-11-04T02:05:50.001Z,92.56
2022-11-04T02:08:20.618Z,92.15
2022-11-04T02:10:59.306Z,93.25
2022-11-04T02:13:28.635Z,93.90
2022-11-04T02:16:12.831Z,95.22
2022-11-04T02:19:00.582Z,95.36
2022-11-04T02:21:59.164Z,95.48
2022-11-04T02:25:22.770Z,95.98
2022-11-04T02:28:29.933Z,95.77
2022-11-04T02:31:14.024Z,96.21
2022-11-04T02:33:52.250Z,96.39
2022-11-04T02:36:34.114Z,96.65
2022-11-04T02:39:13.908Z,96.67
2022-11-04T02:41:57.703Z,95.77
2022-11-04T02:44:35.247Z,95.37
2022-11-04T02:47:12.323Z,95.29
2022-11-04T02:49:50.781Z,96.27
2022-11-04T02:52:27.233Z,97.20
2022-11-04T02:55:04.938Z,97.66
2022-11-04T02:57:40.440Z,97.08
2022-11-04T03:00:21.685Z,96.98
2022-11-04T03:02:57.742Z,97.53
2022-11-04T03:05:34.346Z,97.80
2022-11-04T03:08:10.535Z,98.50
2022-11-04T03:10:46.693Z,98.28
2022-11-04T03:13:22.283Z,98.54
2022-11-04T03:15:56.905Z,98.71
2022-11-04T03:18:39.615Z,98.31
2022-11-04T03:21:14.306Z,98.50
2022-11-04T03:23:44.022Z,98.26
2022-11-04T03:26:22.257Z,98.14
2022-11-04T03:29:05.938Z,98.29
2022-11-04T03:31:46.250Z,98.08
2022-11-04T03:34:16.564Z,98.11
2022-11-04T03:36:45.423Z,98.33
2022-11-04T03:39:14.225Z,98.32
2022-11-04T03:41:50.566Z,98.61
2022-11-04T03:44:19.666Z,98.33
2022-11-04T03:46:48.787Z,98.48
2022-11-04T03:49:20.378Z,98.17
2022-11-04T03:51:48.995Z,98.08
2022-11-04T03:54:19.273Z,98.20
2022-11-04T03:57:25.407Z,98.54
2022-11-04T04:00:10.515Z,98.75
2022-11-04T04:03:08.372Z,98.28
2022-11-04T04:05:45.154Z,98.11
2022-11-04T04:08:31.668Z,98.61
2022-11-04T04:11:12.997Z,98.75
2022-11-04T04:13:51.717Z,98.60
2022-11-04T04:16:29.265Z,98.54
2022-11-04T04:19:05.674Z,98.92
2022-11-04T04:21:44.254Z,98.86
2022-11-04T04:24:36.603Z,98.95
2022-11-04T04:27:23.055Z,99.04
2022-11-04T04:29:54.527Z,98.98
2022-11-04T04:32:27.028Z,98.98
2022-11-04T04:35:16.704Z,99.00
2022-11-04T04:37:48.652Z,98.97
2022-11-04T04:40:42.224Z,99.00
2022-11-04T04:43:34.609Z,99.47
2022-11-04T04:46:04.677Z,99.36
2022-11-04T04:48:33.364Z,99.27
2022-11-04T04:51:02.626Z,99.57
2022-11-04T04:53:32.710Z,99.42
2022-11-04T04:56:01.341Z,99.99
2022-11-04T04:58:30.080Z,100.00
2022-11-04T05:00:59.826Z,99.67
2022-11-04T05:03:28.523Z,100.00
2022-11-04T05:06:00.374Z,100.00
2022-11-04T05:08:28.981Z,100.00
2022-11-04T05:11:00.593Z,100.00
2022-11-04T05:13:30.792Z,100.00
2022-11-04T05:16:06.746Z,100.00
2022-11-04T05:18:38.941Z,100.00
2022-11-04T05:21:11.977Z,100.00
2022-11-04T05:23:40.935Z,100.00
2022-11-04T05:26:15.906Z,100.00
2022-11-04T05:28:45.543Z,100.00
2022-11-04T05:31:22.451Z,100.00
2022-11-04T05:33:51.317Z,100.00
2022-11-04T05:36:20.088Z,100.00
2022-11-04T05:38:52.898Z,100.00
2022-11-04T05:41:26.818Z,100.00
2022-11-04T05:43:57.235Z,100.00
2022-11-04T05:46:27.180Z,100.00
2022-11-04T05:48:56.206Z,100.00
2022-11-04T05:51:29.715Z,100.00
2022-11-04T05:53:58.340Z,100.00
2022-11-04T05:56:28.443Z,100.00
2022-11-04T05:58:57.157Z,100.00
2022-11-04T06:01:31.133Z,100.00
2022-11-04T06:04:01.867Z,100.00
2022-11-04T06:06:34.425Z,100.00
2022-11-04T06:09:04.633Z,100.00
2022-11-04T06:11:36.299Z,100.00
2022-11-04T06:14:05.423Z,100.00
2022-11-04T06:16:34.133Z,100.00
2022-11-04T06:19:06.111Z,100.00
2022-11-04T06:21:38.244Z,100.00
2022-11-04T06:24:07.273Z,100.00
2022-11-04T06:26:37.244Z,100.00
2022-11-04T06:29:05.837Z,100.00
2022-11-04T06:31:34.458Z,100.00
2022-11-04T06:34:03.218Z,100.00
2022-11-04T06:36:31.880Z,100.00
2022-11-04T06:39:04.591Z,100.00
2022-11-04T06:41:34.002Z,100.00
2022-11-04T06:44:04.191Z,100.00
2022-11-04T06:46:38.828Z,100.00
2022-11-04T06:49:12.812Z,100.00
2022-11-04T06:51:41.628Z,100.00
2022-11-04T06:54:10.265Z,100.00
2022-11-04T06:56:38.979Z,100.00
2022-11-04T06:59:09.494Z,100.00
2022-11-04T07:01:38.627Z,100.00
2022-11-04T07:04:07.495Z,100.00
2022-11-04T07:06:38.452Z,100.00
2022-11-04T07:09:12.184Z,100.00
2022-11-04T07:11:42.699Z,100.00
2022-11-04T07:14:14.028Z,100.00
2022-11-04T07:16:42.724Z,100.00
2022-11-04T07:19:11.327Z,100.00
2022-11-04T07:21:39.981Z,100.00
2022-11-04T07:24:09.115Z,100.00
2022-11-04T07:26:37.731Z,100.00
2022-11-04T07:29:06.893Z,100.00
2022-11-04T07:31:36.869Z,100.00
2022-11-04T07:34:06.107Z,100.00
2022-11-04T07:36:34.824Z,100.00
2022-11-04T07:39:03.534Z,100.00
2022-11-04T07:41:32.057Z,100.00
2022-11-04T07:44:01.089Z,100.00
2022-11-04T07:46:29.743Z,100.00
2022-11-04T07:49:00.611Z,100.00
2022-11-04T07:51:30.341Z,100.00
2022-11-04T07:53:59.275Z,100.00
2022-11-04T07:56:28.392Z,100.00
2022-11-04T07:58:56.999Z,100.00
2022-11-04T08:01:26.255Z,100.00
2022-11-04T08:03:55.038Z,100.00
2022-11-04T08:06:25.052Z,100.00
2022-11-04T08:08:54.269Z,100.00
2022-11-04T08:11:28.424Z,100.00
2022-11-04T08:13:57.698Z,100.00
2022-11-04T08:16:33.085Z,100.00
2022-11-04T08:19:03.015Z,100.00
2022-11-04T08:21:35.744Z,100.00
2022-11-04T08:24:06.090Z,100.00
2022-11-04T08:26:35.276Z,100.00
2022-11-04T08:29:08.490Z,100.00
2022-11-04T08:31:37.490Z,100.00
2022-11-04T08:34:08.553Z,100.00
2022-11-04T08:36:41.753Z,100.00
2022-11-04T08:39:11.663Z,100.00
2022-11-04T08:41:43.231Z,100.00
2022-11-04T08:44:14.272Z,100.00
2022-11-04T08:46:45.802Z,100.00
2022-11-04T08:49:20.753Z,100.00
2022-11-04T08:51:56.761Z,100.00
2022-11-04T08:54:26.065Z,100.00
2022-11-04T08:56:55.365Z,100.00
2022-11-04T08:59:25.204Z,100.00
2022-11-04T09:01:54.281Z,100.00
2022-11-04T09:04:23.290Z,100.00
2022-11-04T09:06:56.277Z,100.00
2022-11-04T09:09:25.079Z,100.00
2022-11-04T09:11:54.026Z,100.00
2022-11-04T09:14:23.891Z,100.00
2022-11-04T09:16:54.142Z,100.00
2022-11-04T09:19:22.706Z,100.00
2022-11-04T09:21:52.755Z,100.00
2022-11-04T09:24:21.409Z,100.00
2022-11-04T09:26:50.057Z,100.00
2022-11-04T09:29:18.779Z,100.00
2022-11-04T09:31:47.355Z,100.00
2022-11-04T09:34:15.995Z,100.00
2022-11-04T09:36:44.985Z,100.00
2022-11-04T09:39:15.007Z,100.00
2022-11-04T09:42:18.626Z,100.00
2022-11-04T09:45:24.128Z,100.00
2022-11-04T09:47:48.375Z,100.00
2022-11-04T09:50:25.855Z,100.00
2022-11-04T09:53:02.789Z,100.00
2022-11-04T09:55:41.845Z,100.00
2022-11-04T09:58:15.157Z,100.00
2022-11-04T10:00:57.532Z,100.00
2022-11-04T10:03:52.454Z,100.00
2022-11-04T10:06:41.623Z,100.00
2022-11-04T10:09:31.417Z,100.00
2022-11-04T10:12:23.077Z,100.00
2022-11-04T10:15:18.615Z,100.00
2022-11-04T10:18:06.138Z,100.00
2022-11-04T10:20:50.554Z,100.00
2022-11-04T10:23:24.636Z,100.00
2022-11-04T10:26:04.727Z,100.00
2022-11-04T10:28:42.217Z,100.00
2022-11-04T10:31:17.058Z,100.00
2022-11-04T10:33:51.889Z,100.00
2022-11-04T10:36:22.361Z,100.00
2022-11-04T10:38:55.715Z,100.00
2022-11-04T10:41:33.867Z,100.00
2022-11-04T10:44:09.312Z,100.00
2022-11-04T10:46:56.786Z,100.00
2022-11-04T10:50:27.113Z,100.00
2022-11-04T10:52:49.769Z,100.00
2022-11-04T10:55:37.448Z,100.00
2022-11-04T10:58:17.659Z,100.00
2022-11-04T11:00:47.817Z,100.00
2022-11-04T11:03:33.331Z,100.00
2022-11-04T11:06:28.999Z,100.00
2022-11-04T11:09:13.021Z,100.00
2022-11-04T11:11:48.928Z,100.00
2022-11-04T11:14:34.645Z,100.00
2022-11-04T11:17:26.462Z,100.00
2022-11-04T11:20:02.995Z,100.00
2022-11-04T11:22:43.853Z,100.00
2022-11-04T11:25:31.415Z,100.00
2022-11-04T11:28:03.054Z,100.00
2022-11-04T11:30:35.231Z,100.00
2022-11-04T11:33:17.087Z,100.00
2022-11-04T11:35:55.377Z,100.00
2022-11-04T11:38:27.692Z,100.00
2022-11-04T11:41:25.541Z,100.00
2022-11-04T11:43:58.014Z,100.00
2022-11-04T11:46:30.700Z,100.00
2022-11-04T11:49:04.276Z,100.00
2022-11-04T11:51:36.338Z,100.00
2022-11-04T11:54:22.931Z,100.00
2022-11-04T11:57:13.209Z,100.00
2022-11-04T12:02:53.353Z,100.00
2022-11-04T12:12:00.924Z,100.00
2022-11-04T12:14:49.157Z,100.00
2022-11-04T12:17:36.902Z,100.00
2022-11-04T12:20:43.578Z,100.00
2022-11-04T12:23:22.130Z,100.00
2022-11-04T12:26:13.121Z,100.00
2022-11-04T12:29:04.706Z,100.00
2022-11-04T12:31:46.940Z,100.00
2022-11-04T12:34:41.481Z,100.00
2022-11-04T12:37:26.591Z,100.00
2022-11-04T12:40:12.946Z,100.00
2022-11-04T12:43:10.656Z,100.00
2022-11-04T12:45:58.165Z,100.00
2022-11-04T12:48:58.427Z,100.00
2022-11-04T12:51:42.807Z,100.00
2022-11-04T12:54:46.634Z,100.00
2022-11-04T12:57:30.455Z,100.00
2022-11-04T13:00:12.513Z,100.00
2022-11-04T13:02:50.362Z,100.00
2022-11-04T13:05:45.606Z,100.00
2022-11-04T13:08:26.952Z,100.00
2022-11-04T13:11:04.608Z,100.00
2022-11-04T13:13:40.389Z,100.00
2022-11-04T13:16:13.996Z,100.00
2022-11-04T13:18:45.808Z,100.00
2022-11-04T13:21:23.106Z,100.00
2022-11-04T13:23:58.422Z,100.00
2022-11-04T13:26:28.551Z,100.00
2022-11-04T13:29:08.992Z,100.00
2022-11-04T13:31:51.725Z,100.00
2022-11-04T13:34:36.362Z,100.00
2022-11-04T13:37:21.779Z,100.00
2022-11-04T13:39:56.544Z,100.00
2022-11-04T13:43:19.593Z,100.00
2022-11-04T13:45:52.958Z,100.00
2022-11-04T13:48:27.217Z,100.00
2022-11-04T13:51:03.922Z,100.00
2022-11-04T13:53:46.673Z,100.00
2022-11-04T13:56:35.561Z,100.00
2022-11-04T13:59:23.983Z,100.00
2022-11-04T14:02:38.794Z,100.00
2022-11-04T14:06:12.943Z,100.00
2022-11-04T14:09:34.365Z,100.00
2022-11-04T14:12:34.316Z,100.00
2022-11-04T14:15:18.268Z,100.00
2022-11-04T14:18:12.063Z,99.36
2022-11-04T14:21:08.413Z,99.28
2022-11-04T14:23:38.903Z,99.32
2022-11-04T14:26:11.434Z,98.91
2022-11-04T14:28:44.754Z,99.01
2022-11-04T14:31:36.588Z,99.65
2022-11-04T14:34:07.563Z,98.99
2022-11-04T14:36:39.372Z,99.15
2022-11-04T14:39:25.012Z,98.93
2022-11-04T14:42:02.061Z,99.28
2022-11-04T14:44:38.062Z,98.67
2022-11-04T14:47:26.812Z,98.79
2022-11-04T14:50:07.971Z,98.53
2022-11-04T14:52:48.199Z,98.15
2022-11-04T14:55:21.717Z,98.33
2022-11-04T14:57:54.248Z,98.10
2022-11-04T15:00:37.211Z,98.14
2022-11-04T15:03:57.566Z,98.11
2022-11-04T15:06:11.541Z,98.16
2022-11-04T15:08:46.759Z,97.95
2022-11-04T15:11:42.318Z,98.01
2022-11-04T15:14:22.116Z,98.57
2022-11-04T15:16:55.968Z,98.62
2022-11-04T15:19:33.264Z,98.74
2022-11-04T15:22:05.713Z,98.69
2022-11-04T15:24:36.825Z,98.67
2022-11-04T15:27:10.326Z,98.60
2022-11-04T15:29:39.456Z,98.57
2022-11-04T15:32:08.873Z,98.58
2022-11-04T15:34:39.144Z,98.83
2022-11-04T15:37:09.716Z,98.96
2022-11-04T15:39:44.851Z,99.00
2022-11-04T15:42:40.211Z,98.66
2022-11-04T15:45:38.753Z,98.51
2022-11-04T15:48:29.963Z,98.86
2022-11-04T15:51:21.296Z,98.78
2022-11-04T15:54:00.143Z,99.20
2022-11-04T15:56:36.952Z,98.85
2022-11-04T15:59:16.392Z,99.21
2022-11-04T16:01:48.278Z,99.09
2022-11-04T16:04:21.414Z,98.96
2022-11-04T16:07:24.767Z,99.73
2022-11-04T16:09:57.029Z,99.43
2022-11-04T16:12:36.481Z,99.49
2022-11-04T16:15:06.430Z,99.47
2022-11-04T16:17:35.390Z,99.79
2022-11-04T16:20:07.610Z,99.70
2022-11-04T16:23:28.118Z,99.32
2022-11-04T16:26:01.500Z,99.08
2022-11-04T16:28:37.112Z,98.74
2022-11-04T16:31:10.483Z,99.18
2022-11-04T16:33:39.670Z,99.78
2022-11-04T16:36:23.851Z,99.17
2022-11-04T16:39:00.912Z,99.16
2022-11-04T16:41:35.305Z,98.81
2022-11-04T16:44:05.979Z,98.37
2022-11-04T16:46:35.054Z,97.65
2022-11-04T16:49:03.745Z,98.32
2022-11-04T16:51:35.416Z,97.46
2022-11-04T16:54:05.518Z,98.49
2022-11-04T16:56:35.977Z,98.44
2022-11-04T16:59:04.923Z,98.08
2022-11-04T17:01:33.938Z,97.94
2022-11-04T17:04:04.446Z,97.46
2022-11-04T17:06:33.129Z,98.12
2022-11-04T17:09:01.855Z,97.75
2022-11-04T17:11:32.364Z,98.04
2022-11-04T17:14:01.434Z,97.90
2022-11-04T17:16:31.594Z,97.96
2022-11-04T17:19:01.139Z,97.90
2022-11-04T17:21:29.922Z,97.54
2022-11-04T17:23:59.892Z,97.46
2022-11-04T17:26:28.537Z,97.82
2022-11-04T17:28:59.746Z,97.30
2022-11-04T17:31:28.774Z,97.68
2022-11-04T17:33:57.401Z,97.34
2022-11-04T17:36:26.146Z,97.35
2022-11-04T17:38:54.825Z,97.39
2022-11-04T17:41:40.910Z,97.08
2022-11-04T17:44:11.039Z,97.28
2022-11-04T17:46:41.917Z,97.21
2022-11-04T17:49:15.249Z,97.10
2022-11-04T17:51:48.127Z,96.99
2022-11-04T17:54:18.807Z,96.92
2022-11-04T17:56:49.029Z,96.97
2022-11-04T17:59:19.821Z,96.96
2022-11-04T18:01:50.493Z,96.84
2022-11-04T18:04:22.400Z,96.79
2022-11-04T18:06:52.235Z,96.36
2022-11-04T18:09:21.367Z,96.79
2022-11-04T18:12:07.342Z,96.46
2022-11-04T18:14:37.658Z,96.76
2022-11-04T18:17:07.440Z,96.96
2022-11-04T18:19:37.428Z,96.78
2022-11-04T18:22:06.641Z,96.89
2022-11-04T18:24:36.077Z,97.16
2022-11-04T18:27:06.339Z,96.67
2022-11-04T18:29:41.972Z,96.69
2022-11-04T18:33:07.341Z,96.66
2022-11-04T18:35:36.814Z,96.28
2022-11-04T18:38:08.860Z,96.42
2022-11-04T18:40:38.971Z,96.79
2022-11-04T18:43:09.246Z,96.45
2022-11-04T18:45:39.652Z,96.43
2022-11-04T18:48:08.746Z,96.68
2022-11-04T18:50:37.845Z,96.82
2022-11-04T18:53:07.070Z,96.67
2022-11-04T18:55:36.678Z,96.42
2022-11-04T18:58:05.670Z,96.54
2022-11-04T19:00:37.537Z,96.82
2022-11-04T19:03:08.296Z,96.91
2022-11-04T19:05:42.321Z,96.96
2022-11-04T19:08:11.849Z,96.71
2022-11-04T19:10:57.917Z,96.86
2022-11-04T19:13:29.926Z,96.73
2022-11-04T19:16:07.296Z,96.79
2022-11-04T19:18:37.827Z,97.28
2022-11-04T19:21:09.784Z,96.75
2022-11-04T19:23:39.446Z,96.92
2022-11-04T19:26:13.546Z,97.23
2022-11-04T19:28:48.580Z,97.07
2022-11-04T19:31:20.840Z,96.74
2022-11-04T19:33:52.901Z,96.97
2022-11-04T19:36:24.415Z,96.82
2022-11-04T19:38:55.298Z,97.03
2022-11-04T19:41:42.821Z,96.60
2022-11-04T19:44:14.577Z,96.66
2022-11-04T19:47:35.311Z,96.74
2022-11-04T19:52:47.186Z,96.41
2022-11-04T19:58:25.055Z,96.76
2022-11-04T20:00:56.984Z,96.58
2022-11-04T20:03:25.763Z,96.74
2022-11-04T20:05:54.739Z,96.80
2022-11-04T20:08:26.741Z,96.89
2022-11-04T20:10:55.414Z,96.86
2022-11-04T20:13:42.494Z,96.92
2022-11-04T20:16:18.250Z,97.17
2022-11-04T20:18:51.027Z,96.72
2022-11-04T20:21:25.978Z,97.37
2022-11-04T20:23:59.368Z,96.93
2022-11-04T20:26:30.084Z,96.84
2022-11-04T20:29:00.395Z,97.09
2022-11-04T20:31:33.703Z,96.92
2022-11-04T20:34:07.995Z,96.85
2022-11-04T20:36:38.863Z,96.91
2022-11-04T20:39:13.567Z,96.89
2022-11-04T20:41:42.489Z,97.21
2022-11-04T20:44:12.492Z,97.09
2022-11-04T20:46:42.559Z,97.66
2022-11-04T20:49:12.116Z,97.52
2022-11-04T20:51:50.250Z,97.34
2022-11-04T20:54:27.357Z,97.16
2022-11-04T20:56:56.381Z,97.47
2022-11-04T20:59:25.163Z,97.21
2022-11-04T21:01:56.063Z,97.40
2022-11-04T21:04:24.902Z,96.94
2022-11-04T21:06:54.186Z,97.32
2022-11-04T21:09:23.272Z,97.49
2022-11-04T21:11:53.350Z,97.43
2022-11-04T21:14:22.171Z,97.01
2022-11-04T21:16:50.836Z,97.05
2022-11-04T21:19:21.974Z,97.20
2022-11-04T21:21:50.833Z,97.39
2022-11-04T21:24:19.539Z,97.71
2022-11-04T21:26:49.114Z,97.25
2022-11-04T21:29:21.262Z,97.32
2022-11-04T21:31:50.358Z,97.20
2022-11-04T21:34:19.154Z,97.15
2022-11-04T21:36:51.656Z,97.32
2022-11-04T21:39:20.513Z,97.11
2022-11-04T21:41:49.198Z,97.13
2022-11-04T21:44:19.316Z,97.24
2022-11-04T21:46:51.288Z,97.35
2022-11-04T21:49:21.487Z,96.97
2022-11-04T21:51:50.164Z,96.87
2022-11-04T21:54:19.113Z,97.10
2022-11-04T21:56:47.735Z,97.08
2022-11-04T21:59:18.473Z,96.77
2022-11-04T22:01:49.102Z,96.57
2022-11-04T22:04:17.813Z,97.19
2022-11-04T22:06:47.205Z,96.88
2022-11-04T22:09:15.894Z,96.56
2022-11-04T22:11:44.549Z,97.27
2022-11-04T22:14:13.985Z,96.87
2022-11-04T22:16:42.616Z,96.71
2022-11-04T22:19:15.123Z,96.95
2022-11-04T22:21:46.849Z,97.39
2022-11-04T22:24:18.508Z,96.42
2022-11-04T22:26:47.862Z,96.69
2022-11-04T22:29:16.848Z,97.22
2022-11-04T22:31:46.682Z,97.09
2022-11-04T22:34:16.813Z,96.94
2022-11-04T22:36:45.433Z,97.11
2022-11-04T22:39:16.898Z,97.29
2022-11-04T22:41:47.228Z,97.55
2022-11-04T22:44:16.249Z,97.73
2022-11-04T22:46:45.050Z,97.59
2022-11-04T22:49:14.605Z,96.72
2022-11-04T22:51:44.749Z,96.99
2022-11-04T22:54:14.600Z,97.06
2022-11-04T22:56:43.298Z,97.28
2022-11-04T22:59:12.161Z,96.59
2022-11-04T23:01:41.049Z,96.73
2022-11-04T23:04:12.235Z,96.88
2022-11-04T23:06:41.112Z,96.82
2022-11-04T23:09:13.936Z,96.64
2022-11-04T23:12:00.369Z,97.17
2022-11-04T23:14:46.171Z,97.38
2022-11-04T23:17:37.072Z,97.05
2022-11-04T23:20:10.223Z,97.05
2022-11-04T23:22:57.135Z,97.34
2022-11-04T23:25:28.197Z,97.74
2022-11-04T23:28:14.945Z,97.55
2022-11-04T23:30:46.960Z,97.85
2022-11-04T23:33:16.482Z,97.35
2022-11-04T23:36:04.932Z,97.10
2022-11-04T23:38:35.459Z,97.71
2022-11-04T23:41:25.493Z,97.49
2022-11-04T23:43:54.652Z,97.29
2022-11-04T23:46:49.233Z,97.40
2022-11-04T23:49:35.037Z,97.25
2022-11-04T23:52:22.411Z,96.74
2022-11-04T23:55:08.586Z,96.72
2022-11-04T23:57:55.973Z,96.70
